sensor_id;sensor_type;location;lat;lon;timestamp;temperature;humidity
77803;DHT22;66993;48.256;16.422;2023-08-12T00:00:16;15.1;88.0
77803;DHT22;66993;48.256;16.422;2023-08-12T00:05:16;15.0;88.0
77803;DHT22;66993;48.256;16.422;2023-08-12T00:10:16;15.0;88.0
77803;DHT22;66993;48.256;16.422;2023-08-12T00:15:16;14.7;88.0
77803;DHT22;66993;48.256;16.422;2023-08-12T00:20:16;14.8;88.0
77803;DHT22;66993;48.256;16.422;2023-08-12T00:25:16;14.5;88.0
77803;DHT22;66993;48.256;16.422;2023-08-12T00:30:16;14.7;88.0
77803;DHT22;66993;48.256;16.422;2023-08-12T00:35:16;14.7;89.0
77803;DHT22;66993;48.256;16.422;2023-08-12T00:40:16;15.0;89.0
77803;DHT22;66993;48.256;16.422;2023-08-12T00:45:16;15.2;89.0
77803;DHT22;66993;48.256;16.422;2023-08-12T00:50:16;14.7;89.0
77803;DHT22;66993;48.256;16.422;2023-08-12T00:55:16;14.7;89.0
77803;DHT22;66993;48.256;16.422;2023-08-12T01:00:16;14.8;89.0
77803;DHT22;66993;48.256;16.422;2023-08-12T01:05:16;14.3;89.0
77803;DHT22;66993;48.256;16.422;2023-08-12T01:10:16;14.4;89.0
77803;DHT22;66993;48.256;16.422;2023-08-12T01:15:17;14.2;89.0
77803;DHT22;66993;48.256;16.422;2023-08-12T01:20:16;14.1;89.0
77803;DHT22;66993;48.256;16.422;2023-08-12T01:25:16;14.3;89.0
77803;DHT22;66993;48.256;16.422;2023-08-12T01:30:16;14.3;89.0
77803;DHT22;66993;48.256;16.422;2023-08-12T01:35:17;13.9;89.0
77803;DHT22;66993;48.256;16.422;2023-08-12T01:40:16;13.7;89.0
77803;DHT22;66993;48.256;16.422;2023-08-12T01:45:16;14.1;89.0
77803;DHT22;66993;48.256;16.422;2023-08-12T01:50:16;14.4;90.0
77803;DHT22;66993;48.256;16.422;2023-08-12T01:55:16;14.4;90.0
77803;DHT22;66993;48.256;16.422;2023-08-12T02:00:16;14.1;90.0
77803;DHT22;66993;48.256;16.422;2023-08-12T02:05:16;14.0;90.0
77803;DHT22;66993;48.256;16.422;2023-08-12T02:10:16;14.3;91.0
77803;DHT22;66993;48.256;16.422;2023-08-12T02:15:16;14.2;91.0
77803;DHT22;66993;48.256;16.422;2023-08-12T02:20:16;13.7;91.0
77803;DHT22;66993;48.256;16.422;2023-08-12T02:25:16;13.4;91.0
77803;DHT22;66993;48.256;16.422;2023-08-12T02:30:16;13.4;91.0
77803;DHT22;66993;48.256;16.422;2023-08-12T02:35:18;13.5;91.0
77803;DHT22;66993;48.256;16.422;2023-08-12T02:40:16;13.5;91.0
77803;DHT22;66993;48.256;16.422;2023-08-12T02:45:16;13.3;91.0
77803;DHT22;66993;48.256;16.422;2023-08-12T02:50:16;13.5;91.0
77803;DHT22;66993;48.256;16.422;2023-08-12T02:55:16;13.3;91.0
77803;DHT22;66993;48.256;16.422;2023-08-12T03:00:16;13.1;91.0
77803;DHT22;66993;48.256;16.422;2023-08-12T03:05:16;13.1;91.0
77803;DHT22;66993;48.256;16.422;2023-08-12T03:10:16;13.1;91.0
77803;DHT22;66993;48.256;16.422;2023-08-12T03:15:16;13.0;91.0
77803;DHT22;66993;48.256;16.422;2023-08-12T03:20:16;13.4;91.0
77803;DHT22;66993;48.256;16.422;2023-08-12T03:25:16;13.2;91.0
77803;DHT22;66993;48.256;16.422;2023-08-12T03:30:16;13.1;91.0
77803;DHT22;66993;48.256;16.422;2023-08-12T03:35:16;13.6;91.0
77803;DHT22;66993;48.256;16.422;2023-08-12T03:40:16;13.4;92.0
77803;DHT22;66993;48.256;16.422;2023-08-12T03:45:16;13.7;92.0
77803;DHT22;66993;48.256;16.422;2023-08-12T03:50:16;13.3;92.0
77803;DHT22;66993;48.256;16.422;2023-08-12T03:55:16;13.3;92.0
77803;DHT22;66993;48.256;16.422;2023-08-12T04:00:16;13.2;92.0
77803;DHT22;66993;48.256;16.422;2023-08-12T04:05:16;13.2;92.0
77803;DHT22;66993;48.256;16.422;2023-08-12T04:10:16;13.2;93.0
77803;DHT22;66993;48.256;16.422;2023-08-12T04:15:16;13.5;93.0
77803;DHT22;66993;48.256;16.422;2023-08-12T04:20:16;14.0;93.0
77803;DHT22;66993;48.256;16.422;2023-08-12T04:25:16;13.7;93.0
77803;DHT22;66993;48.256;16.422;2023-08-12T04:30:16;14.0;93.0
77803;DHT22;66993;48.256;16.422;2023-08-12T04:35:16;14.2;93.0
77803;DHT22;66993;48.256;16.422;2023-08-12T04:40:16;14.6;92.0
77803;DHT22;66993;48.256;16.422;2023-08-12T04:45:16;14.6;92.0
77803;DHT22;66993;48.256;16.422;2023-08-12T04:50:16;15.0;92.0
77803;DHT22;66993;48.256;16.422;2023-08-12T04:55:16;15.5;92.0
77803;DHT22;66993;48.256;16.422;2023-08-12T05:00:16;16.0;92.0
77803;DHT22;66993;48.256;16.422;2023-08-12T05:05:16;16.3;93.0
77803;DHT22;66993;48.256;16.422;2023-08-12T05:10:16;16.6;91.0
77803;DHT22;66993;48.256;16.422;2023-08-12T05:15:16;17.1;91.0
77803;DHT22;66993;48.256;16.422;2023-08-12T05:20:16;17.3;90.0
77803;DHT22;66993;48.256;16.422;2023-08-12T05:25:16;17.6;89.0
77803;DHT22;66993;48.256;16.422;2023-08-12T05:30:16;17.7;88.0
77803;DHT22;66993;48.256;16.422;2023-08-12T05:35:16;17.8;87.0
77803;DHT22;66993;48.256;16.422;2023-08-12T05:40:16;18.1;87.0
77803;DHT22;66993;48.256;16.422;2023-08-12T05:45:16;18.6;86.0
77803;DHT22;66993;48.256;16.422;2023-08-12T05:50:16;18.1;83.0
77803;DHT22;66993;48.256;16.422;2023-08-12T05:55:16;18.5;82.0
77803;DHT22;66993;48.256;16.422;2023-08-12T06:00:16;18.7;82.0
77803;DHT22;66993;48.256;16.422;2023-08-12T06:05:16;19.0;81.0
77803;DHT22;66993;48.256;16.422;2023-08-12T06:10:16;19.5;81.0
77803;DHT22;66993;48.256;16.422;2023-08-12T06:15:16;19.5;81.0
77803;DHT22;66993;48.256;16.422;2023-08-12T06:20:16;19.8;80.0
77803;DHT22;66993;48.256;16.422;2023-08-12T06:25:16;19.8;79.0
77803;DHT22;66993;48.256;16.422;2023-08-12T06:30:16;19.8;79.0
77803;DHT22;66993;48.256;16.422;2023-08-12T06:35:16;20.3;77.0
77803;DHT22;66993;48.256;16.422;2023-08-12T06:40:16;20.3;77.0
77803;DHT22;66993;48.256;16.422;2023-08-12T06:45:16;20.8;76.0
77803;DHT22;66993;48.256;16.422;2023-08-12T06:50:16;20.8;74.0
77803;DHT22;66993;48.256;16.422;2023-08-12T06:55:16;21.3;72.0
77803;DHT22;66993;48.256;16.422;2023-08-12T07:00:16;21.3;71.0
77803;DHT22;66993;48.256;16.422;2023-08-12T07:05:16;21.8;69.0
77803;DHT22;66993;48.256;16.422;2023-08-12T07:10:16;21.8;67.0
77803;DHT22;66993;48.256;16.422;2023-08-12T07:15:16;22.3;65.0
77803;DHT22;66993;48.256;16.422;2023-08-12T07:20:16;22.4;64.0
77803;DHT22;66993;48.256;16.422;2023-08-12T07:25:16;22.7;63.0
77803;DHT22;66993;48.256;16.422;2023-08-12T07:30:16;23.2;60.0
77803;DHT22;66993;48.256;16.422;2023-08-12T07:35:16;22.2;59.0
77803;DHT22;66993;48.256;16.422;2023-08-12T07:40:16;23.2;58.0
77803;DHT22;66993;48.256;16.422;2023-08-12T07:45:16;23.1;55.0
77803;DHT22;66993;48.256;16.422;2023-08-12T07:50:16;23.6;54.0
77803;DHT22;66993;48.256;16.422;2023-08-12T07:55:16;23.7;52.0
77803;DHT22;66993;48.256;16.422;2023-08-12T08:00:16;23.7;50.0
77803;DHT22;66993;48.256;16.422;2023-08-12T08:05:16;24.7;49.0
77803;DHT22;66993;48.256;16.422;2023-08-12T08:10:16;24.7;49.0
77803;DHT22;66993;48.256;16.422;2023-08-12T08:15:16;25.2;47.0
77803;DHT22;66993;48.256;16.422;2023-08-12T08:20:16;24.7;46.0
77803;DHT22;66993;48.256;16.422;2023-08-12T08:25:16;24.6;46.0
77803;DHT22;66993;48.256;16.422;2023-08-12T08:30:16;25.6;45.0
77803;DHT22;66993;48.256;16.422;2023-08-12T08:35:16;25.9;45.0
77803;DHT22;66993;48.256;16.422;2023-08-12T08:40:16;26.4;44.0
77803;DHT22;66993;48.256;16.422;2023-08-12T08:45:16;26.7;43.0
77803;DHT22;66993;48.256;16.422;2023-08-12T08:50:16;26.7;42.0
77803;DHT22;66993;48.256;16.422;2023-08-12T08:55:16;26.7;41.0
77803;DHT22;66993;48.256;16.422;2023-08-12T09:00:16;26.7;40.0
77803;DHT22;66993;48.256;16.422;2023-08-12T09:05:16;27.7;40.0
77803;DHT22;66993;48.256;16.422;2023-08-12T09:10:16;27.7;40.0
77803;DHT22;66993;48.256;16.422;2023-08-12T09:15:16;27.7;39.0
77803;DHT22;66993;48.256;16.422;2023-08-12T09:20:16;28.2;39.0
77803;DHT22;66993;48.256;16.422;2023-08-12T09:25:16;28.4;40.0
77803;DHT22;66993;48.256;16.422;2023-08-12T09:30:16;28.4;43.0
77803;DHT22;66993;48.256;16.422;2023-08-12T09:35:16;28.8;45.0
77803;DHT22;66993;48.256;16.422;2023-08-12T09:40:16;29.3;47.0
77803;DHT22;66993;48.256;16.422;2023-08-12T09:45:16;28.8;49.0
77803;DHT22;66993;48.256;16.422;2023-08-12T09:50:16;28.8;49.0
77803;DHT22;66993;48.256;16.422;2023-08-12T09:55:17;29.1;50.0
77803;DHT22;66993;48.256;16.422;2023-08-12T10:00:16;28.6;51.0
77803;DHT22;66993;48.256;16.422;2023-08-12T10:05:17;29.6;52.0
77803;DHT22;66993;48.256;16.422;2023-08-12T10:10:16;29.6;54.0
77803;DHT22;66993;48.256;16.422;2023-08-12T10:15:16;29.8;55.0
77803;DHT22;66993;48.256;16.422;2023-08-12T10:20:20;30.1;55.0
77803;DHT22;66993;48.256;16.422;2023-08-12T10:25:17;30.6;54.0
77803;DHT22;66993;48.256;16.422;2023-08-12T10:30:16;30.5;54.0
77803;DHT22;66993;48.256;16.422;2023-08-12T10:35:16;30.5;53.0
77803;DHT22;66993;48.256;16.422;2023-08-12T10:40:19;30.5;52.0
77803;DHT22;66993;48.256;16.422;2023-08-12T10:45:17;30.0;51.0
77803;DHT22;66993;48.256;16.422;2023-08-12T10:50:16;30.5;50.0
77803;DHT22;66993;48.256;16.422;2023-08-12T10:55:16;30.6;48.0
77803;DHT22;66993;48.256;16.422;2023-08-12T11:00:17;30.6;47.0
77803;DHT22;66993;48.256;16.422;2023-08-12T11:05:16;30.9;46.0
77803;DHT22;66993;48.256;16.422;2023-08-12T11:10:16;30.9;46.0
77803;DHT22;66993;48.256;16.422;2023-08-12T11:15:16;29.9;44.0
77803;DHT22;66993;48.256;16.422;2023-08-12T11:20:16;30.9;45.0
77803;DHT22;66993;48.256;16.422;2023-08-12T11:25:16;30.9;45.0
77803;DHT22;66993;48.256;16.422;2023-08-12T11:30:16;30.3;44.0
77803;DHT22;66993;48.256;16.422;2023-08-12T11:35:16;29.8;44.0
77803;DHT22;66993;48.256;16.422;2023-08-12T11:40:16;30.3;45.0
77803;DHT22;66993;48.256;16.422;2023-08-12T11:45:18;31.3;46.0
77803;DHT22;66993;48.256;16.422;2023-08-12T11:50:16;31.8;46.0
77803;DHT22;66993;48.256;16.422;2023-08-12T11:55:16;30.8;46.0
77803;DHT22;66993;48.256;16.422;2023-08-12T12:00:16;32.3;46.0
77803;DHT22;66993;48.256;16.422;2023-08-12T12:05:16;31.3;46.0
77803;DHT22;66993;48.256;16.422;2023-08-12T12:10:18;31.8;46.0
77803;DHT22;66993;48.256;16.422;2023-08-12T12:15:16;32.8;46.0
77803;DHT22;66993;48.256;16.422;2023-08-12T12:20:16;32.3;47.0
77803;DHT22;66993;48.256;16.422;2023-08-12T12:25:16;32.4;46.0
77803;DHT22;66993;48.256;16.422;2023-08-12T12:30:16;31.9;46.0
77803;DHT22;66993;48.256;16.422;2023-08-12T12:35:16;32.4;46.0
77803;DHT22;66993;48.256;16.422;2023-08-12T12:40:16;32.8;46.0
77803;DHT22;66993;48.256;16.422;2023-08-12T12:45:16;32.7;46.0
77803;DHT22;66993;48.256;16.422;2023-08-12T12:50:16;33.2;45.0
77803;DHT22;66993;48.256;16.422;2023-08-12T12:55:16;32.7;44.0
77803;DHT22;66993;48.256;16.422;2023-08-12T13:00:16;33.2;45.0
77803;DHT22;66993;48.256;16.422;2023-08-12T13:05:16;33.2;45.0
77803;DHT22;66993;48.256;16.422;2023-08-12T13:10:16;33.2;44.0
77803;DHT22;66993;48.256;16.422;2023-08-12T13:15:16;34.2;45.0
77803;DHT22;66993;48.256;16.422;2023-08-12T13:20:16;34.2;44.0
77803;DHT22;66993;48.256;16.422;2023-08-12T13:25:16;33.2;44.0
77803;DHT22;66993;48.256;16.422;2023-08-12T13:30:16;34.0;43.0
77803;DHT22;66993;48.256;16.422;2023-08-12T13:35:16;33.5;43.0
77803;DHT22;66993;48.256;16.422;2023-08-12T13:40:16;34.0;44.0
77803;DHT22;66993;48.256;16.422;2023-08-12T13:45:16;33.0;43.0
77803;DHT22;66993;48.256;16.422;2023-08-12T13:50:16;33.5;43.0
77803;DHT22;66993;48.256;16.422;2023-08-12T13:55:16;33.4;44.0
77803;DHT22;66993;48.256;16.422;2023-08-12T14:00:16;33.9;43.0
77803;DHT22;66993;48.256;16.422;2023-08-12T14:05:16;33.9;44.0
77803;DHT22;66993;48.256;16.422;2023-08-12T14:10:16;33.9;44.0
77803;DHT22;66993;48.256;16.422;2023-08-12T14:15:16;33.9;43.0
77803;DHT22;66993;48.256;16.422;2023-08-12T14:20:16;33.9;44.0
77803;DHT22;66993;48.256;16.422;2023-08-12T14:25:16;33.9;43.0
77803;DHT22;66993;48.256;16.422;2023-08-12T14:30:17;32.7;43.0
77803;DHT22;66993;48.256;16.422;2023-08-12T14:35:16;33.7;44.0
77803;DHT22;66993;48.256;16.422;2023-08-12T14:40:16;32.7;43.0
77803;DHT22;66993;48.256;16.422;2023-08-12T14:45:16;33.2;44.0
77803;DHT22;66993;48.256;16.422;2023-08-12T14:50:16;33.0;43.0
77803;DHT22;66993;48.256;16.422;2023-08-12T14:55:16;32.8;44.0
77803;DHT22;66993;48.256;16.422;2023-08-12T15:00:16;32.3;43.0
77803;DHT22;66993;48.256;16.422;2023-08-12T15:05:16;32.3;44.0
77803;DHT22;66993;48.256;16.422;2023-08-12T15:10:16;32.4;44.0
77803;DHT22;66993;48.256;16.422;2023-08-12T15:15:16;32.0;44.0
77803;DHT22;66993;48.256;16.422;2023-08-12T15:20:16;32.0;44.0
77803;DHT22;66993;48.256;16.422;2023-08-12T15:25:16;32.0;45.0
77803;DHT22;66993;48.256;16.422;2023-08-12T15:30:16;32.0;46.0
77803;DHT22;66993;48.256;16.422;2023-08-12T15:35:16;32.1;46.0
77803;DHT22;66993;48.256;16.422;2023-08-12T15:40:16;31.6;45.0
77803;DHT22;66993;48.256;16.422;2023-08-12T15:45:16;31.8;46.0
77803;DHT22;66993;48.256;16.422;2023-08-12T15:50:16;32.5;46.0
77803;DHT22;66993;48.256;16.422;2023-08-12T15:55:16;31.5;46.0
77803;DHT22;66993;48.256;16.422;2023-08-12T16:00:16;31.6;46.0
77803;DHT22;66993;48.256;16.422;2023-08-12T16:05:16;31.1;45.0
77803;DHT22;66993;48.256;16.422;2023-08-12T16:10:16;30.5;46.0
77803;DHT22;66993;48.256;16.422;2023-08-12T16:15:16;31.5;47.0
77803;DHT22;66993;48.256;16.422;2023-08-12T16:20:16;30.5;47.0
77803;DHT22;66993;48.256;16.422;2023-08-12T16:25:16;30.9;48.0
77803;DHT22;66993;48.256;16.422;2023-08-12T16:30:16;30.4;48.0
77803;DHT22;66993;48.256;16.422;2023-08-12T16:35:16;30.4;48.0
77803;DHT22;66993;48.256;16.422;2023-08-12T16:40:16;30.7;49.0
77803;DHT22;66993;48.256;16.422;2023-08-12T16:45:16;30.2;49.0
77803;DHT22;66993;48.256;16.422;2023-08-12T16:50:16;30.5;49.0
77803;DHT22;66993;48.256;16.422;2023-08-12T16:55:16;30.0;51.0
77803;DHT22;66993;48.256;16.422;2023-08-12T17:00:16;30.1;51.0
77803;DHT22;66993;48.256;16.422;2023-08-12T17:05:16;30.1;52.0
77803;DHT22;66993;48.256;16.422;2023-08-12T17:10:16;29.1;52.0
77803;DHT22;66993;48.256;16.422;2023-08-12T17:15:16;29.6;52.0
77803;DHT22;66993;48.256;16.422;2023-08-12T17:20:16;28.7;53.0
77803;DHT22;66993;48.256;16.422;2023-08-12T17:25:16;28.8;53.0
77803;DHT22;66993;48.256;16.422;2023-08-12T17:30:17;28.1;54.0
77803;DHT22;66993;48.256;16.422;2023-08-12T17:35:16;28.2;54.0
77803;DHT22;66993;48.256;16.422;2023-08-12T17:40:16;27.7;55.0
77803;DHT22;66993;48.256;16.422;2023-08-12T17:45:16;27.6;55.0
77803;DHT22;66993;48.256;16.422;2023-08-12T17:50:16;26.7;55.0
77803;DHT22;66993;48.256;16.422;2023-08-12T17:55:16;26.4;56.0
77803;DHT22;66993;48.256;16.422;2023-08-12T18:00:16;26.1;56.0
77803;DHT22;66993;48.256;16.422;2023-08-12T18:05:16;25.7;57.0
77803;DHT22;66993;48.256;16.422;2023-08-12T18:10:16;25.4;57.0
77803;DHT22;66993;48.256;16.422;2023-08-12T18:15:16;25.1;58.0
77803;DHT22;66993;48.256;16.422;2023-08-12T18:20:16;25.0;58.0
77803;DHT22;66993;48.256;16.422;2023-08-12T18:25:16;24.7;59.0
77803;DHT22;66993;48.256;16.422;2023-08-12T18:30:16;24.5;59.0
77803;DHT22;66993;48.256;16.422;2023-08-12T18:35:16;24.3;60.0
77803;DHT22;66993;48.256;16.422;2023-08-12T18:40:16;24.2;60.0
77803;DHT22;66993;48.256;16.422;2023-08-12T18:45:16;24.0;62.0
77803;DHT22;66993;48.256;16.422;2023-08-12T18:50:16;23.7;63.0
77803;DHT22;66993;48.256;16.422;2023-08-12T18:55:16;23.5;64.0
77803;DHT22;66993;48.256;16.422;2023-08-12T19:00:16;23.4;64.0
77803;DHT22;66993;48.256;16.422;2023-08-12T19:05:16;23.3;65.0
77803;DHT22;66993;48.256;16.422;2023-08-12T19:10:16;23.0;66.0
77803;DHT22;66993;48.256;16.422;2023-08-12T19:15:16;22.8;66.0
77803;DHT22;66993;48.256;16.422;2023-08-12T19:20:16;22.8;67.0
77803;DHT22;66993;48.256;16.422;2023-08-12T19:25:16;22.7;67.0
77803;DHT22;66993;48.256;16.422;2023-08-12T19:30:16;22.6;68.0
77803;DHT22;66993;48.256;16.422;2023-08-12T19:35:16;22.4;68.0
77803;DHT22;66993;48.256;16.422;2023-08-12T19:40:16;22.3;68.0
77803;DHT22;66993;48.256;16.422;2023-08-12T19:45:16;22.1;70.0
77803;DHT22;66993;48.256;16.422;2023-08-12T19:50:16;21.9;70.0
77803;DHT22;66993;48.256;16.422;2023-08-12T19:55:16;21.7;70.0
77803;DHT22;66993;48.256;16.422;2023-08-12T20:00:16;21.7;71.0
77803;DHT22;66993;48.256;16.422;2023-08-12T20:05:16;21.5;71.0
77803;DHT22;66993;48.256;16.422;2023-08-12T20:10:17;21.5;71.0
77803;DHT22;66993;48.256;16.422;2023-08-12T20:15:16;21.4;72.0
77803;DHT22;66993;48.256;16.422;2023-08-12T20:20:16;21.1;72.0
77803;DHT22;66993;48.256;16.422;2023-08-12T20:25:16;21.1;72.0
77803;DHT22;66993;48.256;16.422;2023-08-12T20:30:16;20.9;73.0
77803;DHT22;66993;48.256;16.422;2023-08-12T20:35:16;20.7;73.0
77803;DHT22;66993;48.256;16.422;2023-08-12T20:40:16;20.5;74.0
77803;DHT22;66993;48.256;16.422;2023-08-12T20:45:16;20.4;74.0
77803;DHT22;66993;48.256;16.422;2023-08-12T20:50:16;20.3;75.0
77803;DHT22;66993;48.256;16.422;2023-08-12T20:55:16;20.2;76.0
77803;DHT22;66993;48.256;16.422;2023-08-12T21:00:16;20.0;77.0
77803;DHT22;66993;48.256;16.422;2023-08-12T21:05:16;20.1;77.0
77803;DHT22;66993;48.256;16.422;2023-08-12T21:10:16;20.0;78.0
77803;DHT22;66993;48.256;16.422;2023-08-12T21:15:16;20.0;78.0
77803;DHT22;66993;48.256;16.422;2023-08-12T21:20:16;19.9;78.0
77803;DHT22;66993;48.256;16.422;2023-08-12T21:25:16;19.8;78.0
77803;DHT22;66993;48.256;16.422;2023-08-12T21:30:16;19.8;78.0
77803;DHT22;66993;48.256;16.422;2023-08-12T21:35:16;19.6;79.0
77803;DHT22;66993;48.256;16.422;2023-08-12T21:40:16;19.5;79.0
77803;DHT22;66993;48.256;16.422;2023-08-12T21:45:16;19.2;79.0
77803;DHT22;66993;48.256;16.422;2023-08-12T21:50:16;19.2;80.0
77803;DHT22;66993;48.256;16.422;2023-08-12T21:55:16;19.1;80.0
77803;DHT22;66993;48.256;16.422;2023-08-12T22:00:16;18.9;80.0
77803;DHT22;66993;48.256;16.422;2023-08-12T22:05:16;18.7;81.0
77803;DHT22;66993;48.256;16.422;2023-08-12T22:10:16;18.8;81.0
77803;DHT22;66993;48.256;16.422;2023-08-12T22:15:16;18.7;82.0
77803;DHT22;66993;48.256;16.422;2023-08-12T22:20:16;18.8;82.0
77803;DHT22;66993;48.256;16.422;2023-08-12T22:25:16;18.5;82.0
77803;DHT22;66993;48.256;16.422;2023-08-12T22:30:16;18.5;82.0
77803;DHT22;66993;48.256;16.422;2023-08-12T22:35:17;18.5;83.0
77803;DHT22;66993;48.256;16.422;2023-08-12T22:40:16;18.4;83.0
77803;DHT22;66993;48.256;16.422;2023-08-12T22:45:16;18.3;83.0
77803;DHT22;66993;48.256;16.422;2023-08-12T22:50:16;18.0;83.0
77803;DHT22;66993;48.256;16.422;2023-08-12T22:55:16;17.9;83.0
77803;DHT22;66993;48.256;16.422;2023-08-12T23:00:16;17.9;84.0
77803;DHT22;66993;48.256;16.422;2023-08-12T23:05:16;18.0;84.0
77803;DHT22;66993;48.256;16.422;2023-08-12T23:10:16;18.2;84.0
77803;DHT22;66993;48.256;16.422;2023-08-12T23:15:16;18.3;85.0
77803;DHT22;66993;48.256;16.422;2023-08-12T23:20:16;18.4;85.0
77803;DHT22;66993;48.256;16.422;2023-08-12T23:25:16;18.4;85.0
77803;DHT22;66993;48.256;16.422;2023-08-12T23:30:16;18.7;86.0
77803;DHT22;66993;48.256;16.422;2023-08-12T23:35:16;18.6;85.0
77803;DHT22;66993;48.256;16.422;2023-08-12T23:40:16;18.6;85.0
77803;DHT22;66993;48.256;16.422;2023-08-12T23:45:16;18.8;85.0
77803;DHT22;66993;48.256;16.422;2023-08-12T23:50:16;18.5;85.0
77803;DHT22;66993;48.256;16.422;2023-08-12T23:55:16;18.4;85.0
